createdAt,value
2023-04-10T00:00:11.304Z,12.73
2023-04-10T00:01:15.066Z,12.63
2023-04-10T00:02:26.155Z,12.23
2023-04-10T00:03:30.192Z,10.97
2023-04-10T00:04:34.126Z,13.43
2023-04-10T00:05:37.967Z,13.00
2023-04-10T00:06:41.627Z,11.35
2023-04-10T00:07:45.307Z,14.43
2023-04-10T00:08:48.991Z,12.50
2023-04-10T00:09:52.736Z,13.40
2023-04-10T00:10:56.449Z,13.07
2023-04-10T00:12:01.816Z,11.90
2023-04-10T00:13:05.496Z,13.38
2023-04-10T00:14:09.202Z,10.83
2023-04-10T00:15:13.144Z,10.60
2023-04-10T00:16:16.942Z,12.57
2023-04-10T00:17:20.768Z,14.73
2023-04-10T00:18:24.594Z,14.07
2023-04-10T00:19:28.442Z,14.63
2023-04-10T00:20:32.132Z,12.80
2023-04-10T00:21:38.131Z,13.13
2023-04-10T00:22:41.884Z,10.88
2023-04-10T00:23:45.668Z,14.55
2023-04-10T00:24:49.305Z,11.73
2023-04-10T00:25:55.834Z,13.80
2023-04-10T00:27:01.372Z,11.75
2023-04-10T00:28:05.191Z,11.35
2023-04-10T00:29:08.962Z,11.55
2023-04-10T00:30:18.916Z,11.50
2023-04-10T00:31:22.862Z,13.35
2023-04-10T00:32:26.857Z,13.73
2023-04-10T00:33:33.616Z,12.80
2023-04-10T00:34:46.882Z,12.93
2023-04-10T00:35:52.391Z,13.00
2023-04-10T00:36:56.121Z,12.60
2023-04-10T00:37:59.880Z,12.93
2023-04-10T00:39:03.609Z,13.40
2023-04-10T00:40:08.615Z,11.13
2023-04-10T00:41:12.315Z,14.00
2023-04-10T00:42:17.659Z,11.98
2023-04-10T00:43:21.459Z,12.43
2023-04-10T00:44:25.105Z,14.23
2023-04-10T00:45:28.948Z,15.18
2023-04-10T00:46:33.385Z,11.83
2023-04-10T00:47:39.016Z,14.65
2023-04-10T00:48:43.035Z,11.63
2023-04-10T00:49:46.969Z,11.30
2023-04-10T00:50:50.862Z,13.10
2023-04-10T00:51:57.872Z,12.30
2023-04-10T00:53:02.110Z,11.98
2023-04-10T00:54:06.092Z,15.50
2023-04-10T00:55:11.735Z,13.15
2023-04-10T00:56:16.257Z,13.00
2023-04-10T00:57:21.645Z,11.80
2023-04-10T00:58:25.389Z,11.48
2023-04-10T00:59:31.573Z,13.25
2023-04-10T01:00:35.301Z,12.88
2023-04-10T01:01:39.111Z,11.85
2023-04-10T01:02:43.295Z,14.53
2023-04-10T01:03:47.260Z,14.73
2023-04-10T01:04:51.300Z,14.15
2023-04-10T01:06:05.527Z,12.38
2023-04-10T01:07:16.635Z,12.60
2023-04-10T01:08:33.898Z,14.93
2023-04-10T01:09:42.776Z,11.70
2023-04-10T01:10:52.568Z,14.55
2023-04-10T01:12:01.366Z,12.23
2023-04-10T01:13:16.769Z,14.02
2023-04-10T01:14:31.786Z,12.53
2023-04-10T01:15:43.417Z,14.25
2023-04-10T01:16:52.238Z,14.10
2023-04-10T01:18:03.241Z,12.63
2023-04-10T01:19:17.654Z,12.02
2023-04-10T01:20:23.854Z,13.53
2023-04-10T01:21:28.978Z,11.98
2023-04-10T01:22:37.271Z,13.10
2023-04-10T01:24:05.414Z,15.38
2023-04-10T01:25:30.769Z,15.98
2023-04-10T01:26:53.854Z,14.07
2023-04-10T01:28:17.155Z,14.25
2023-04-10T01:29:26.358Z,14.93
2023-04-10T01:30:33.098Z,13.75
2023-04-10T01:31:42.745Z,15.82
2023-04-10T01:32:46.868Z,14.47
2023-04-10T01:33:53.696Z,14.60
2023-04-10T01:35:01.801Z,13.85
2023-04-10T01:36:09.099Z,13.32
2023-04-10T01:37:17.504Z,15.68
2023-04-10T01:38:22.824Z,15.43
2023-04-10T01:39:28.477Z,16.73
2023-04-10T01:40:33.827Z,16.02
2023-04-10T01:41:39.368Z,16.27
2023-04-10T01:42:48.550Z,14.57
2023-04-10T01:43:54.058Z,14.83
2023-04-10T01:45:00.571Z,14.73
2023-04-10T01:46:05.684Z,14.57
2023-04-10T01:47:09.487Z,14.35
2023-04-10T01:48:13.370Z,13.75
2023-04-10T01:49:18.855Z,15.53
2023-04-10T01:50:23.501Z,18.23
2023-04-10T01:51:28.017Z,16.70
2023-04-10T01:52:33.443Z,14.65
2023-04-10T01:53:39.548Z,17.08
2023-04-10T01:54:44.551Z,13.07
2023-04-10T01:55:48.863Z,15.25
2023-04-10T01:56:52.625Z,15.32
2023-04-10T01:57:56.658Z,14.00
2023-04-10T01:59:01.061Z,14.90
2023-04-10T02:00:07.492Z,14.43
2023-04-10T02:01:22.506Z,14.40
2023-04-10T02:02:33.482Z,17.30
2023-04-10T02:03:37.491Z,16.42
2023-04-10T02:04:41.489Z,15.57
2023-04-10T02:05:57.824Z,17.23
2023-04-10T02:07:12.621Z,15.88
2023-04-10T02:08:22.411Z,16.00
2023-04-10T02:09:32.686Z,16.40
2023-04-10T02:10:42.233Z,15.52
2023-04-10T02:11:52.858Z,13.93
2023-04-10T02:13:02.250Z,16.38
2023-04-10T02:14:20.532Z,15.52
2023-04-10T02:15:28.847Z,15.07
2023-04-10T02:16:34.145Z,15.65
2023-04-10T02:17:40.502Z,16.47
2023-04-10T02:18:46.069Z,15.95
2023-04-10T02:19:52.059Z,18.15
2023-04-10T02:20:56.135Z,17.08
2023-04-10T02:22:00.104Z,16.00
2023-04-10T02:23:07.147Z,14.83
2023-04-10T02:24:10.876Z,15.70
2023-04-10T02:25:15.168Z,18.98
2023-04-10T02:26:18.862Z,15.75
2023-04-10T02:27:30.986Z,16.48
2023-04-10T02:28:34.773Z,15.37
2023-04-10T02:29:38.460Z,20.20
2023-04-10T02:30:43.793Z,18.25
2023-04-10T02:31:47.843Z,18.92
2023-04-10T02:32:51.604Z,18.45
2023-04-10T02:33:55.700Z,17.20
2023-04-10T02:34:59.972Z,15.60
2023-04-10T02:36:03.716Z,19.40
2023-04-10T02:37:07.430Z,18.30
2023-04-10T02:38:11.185Z,17.02
2023-04-10T02:39:14.950Z,18.57
2023-04-10T02:40:18.783Z,19.90
2023-04-10T02:41:22.439Z,16.63
2023-04-10T02:42:26.230Z,20.45
2023-04-10T02:43:29.998Z,21.33
2023-04-10T02:44:33.746Z,19.23
2023-04-10T02:45:37.450Z,16.98
2023-04-10T02:46:42.937Z,15.98
2023-04-10T02:47:46.828Z,17.48
2023-04-10T02:48:50.574Z,18.50
2023-04-10T02:49:54.303Z,18.17
2023-04-10T02:50:58.902Z,17.25
2023-04-10T02:52:02.643Z,16.95
2023-04-10T02:53:06.312Z,17.05
2023-04-10T02:54:10.033Z,17.38
2023-04-10T02:55:13.848Z,16.97
2023-04-10T02:56:20.529Z,18.98
2023-04-10T02:57:24.179Z,19.77
2023-04-10T02:58:29.278Z,19.38
2023-04-10T02:59:32.939Z,18.38
2023-04-10T03:00:36.715Z,20.73
2023-04-10T03:01:42.169Z,16.13
2023-04-10T03:02:46.244Z,16.20
2023-04-10T03:03:50.389Z,16.95
2023-04-10T03:04:54.279Z,18.67
2023-04-10T03:05:58.103Z,18.23
2023-04-10T03:07:01.826Z,19.42
2023-04-10T03:08:05.863Z,18.80
2023-04-10T03:09:09.528Z,19.13
2023-04-10T03:10:13.407Z,17.48
2023-04-10T03:11:17.191Z,19.20
2023-04-10T03:12:20.876Z,17.63
2023-04-10T03:13:24.608Z,19.90
2023-04-10T03:14:28.463Z,15.80
2023-04-10T03:15:32.118Z,18.67
2023-04-10T03:16:35.798Z,16.77
2023-04-10T03:17:41.247Z,19.52
2023-04-10T03:18:44.887Z,18.10
2023-04-10T03:19:48.591Z,16.40
2023-04-10T03:20:52.490Z,17.23
2023-04-10T03:21:56.190Z,17.90
2023-04-10T03:22:59.891Z,17.25
2023-04-10T03:24:03.603Z,15.35
2023-04-10T03:25:08.050Z,17.45
2023-04-10T03:26:11.795Z,17.20
2023-04-10T03:27:15.533Z,19.87
2023-04-10T03:28:19.224Z,21.65
2023-04-10T03:29:22.945Z,20.55
2023-04-10T03:30:26.741Z,16.60
2023-04-10T03:31:31.140Z,15.98
2023-04-10T03:32:34.874Z,17.33
2023-04-10T03:33:40.200Z,20.08
2023-04-10T03:34:43.942Z,16.98
2023-04-10T03:35:48.446Z,19.83
2023-04-10T03:36:52.847Z,19.08
2023-04-10T03:37:56.603Z,22.00
2023-04-10T03:39:00.286Z,15.95
2023-04-10T03:40:08.217Z,16.42
2023-04-10T03:41:11.927Z,19.08
2023-04-10T03:42:15.658Z,20.45
2023-04-10T03:43:19.306Z,17.83
2023-04-10T03:44:22.934Z,15.52
2023-04-10T03:45:26.663Z,17.52
2023-04-10T03:46:30.390Z,16.35
2023-04-10T03:47:34.900Z,17.98
2023-04-10T03:48:40.283Z,17.50
2023-04-10T03:49:44.051Z,17.35
2023-04-10T03:50:47.913Z,17.65
2023-04-10T03:51:51.598Z,19.08
2023-04-10T03:52:55.384Z,15.65
2023-04-10T03:53:59.073Z,16.73
2023-04-10T03:55:02.789Z,21.00
2023-04-10T03:56:07.727Z,22.02
2023-04-10T03:57:11.422Z,20.15
2023-04-10T03:58:15.104Z,18.42
2023-04-10T03:59:18.852Z,16.77
2023-04-10T04:00:22.627Z,15.45
2023-04-10T04:01:26.354Z,17.05
2023-04-10T04:02:30.205Z,17.48
2023-04-10T04:03:34.228Z,14.60
2023-04-10T04:04:40.142Z,14.13
2023-04-10T04:05:43.854Z,15.70
2023-04-10T04:06:47.936Z,15.95
2023-04-10T04:07:51.674Z,19.05
2023-04-10T04:08:55.436Z,18.88
2023-04-10T04:09:59.229Z,16.53
2023-04-10T04:11:03.473Z,16.23
2023-04-10T04:12:07.184Z,17.10
2023-04-10T04:13:10.909Z,20.40
2023-04-10T04:14:14.611Z,18.60
2023-04-10T04:15:18.377Z,16.47
2023-04-10T04:16:22.274Z,16.83
2023-04-10T04:17:33.091Z,17.55
2023-04-10T04:18:36.828Z,18.42
2023-04-10T04:19:42.182Z,22.35
2023-04-10T04:20:45.905Z,17.90
2023-04-10T04:21:49.701Z,15.88
2023-04-10T04:22:53.516Z,17.95
2023-04-10T04:23:57.246Z,18.55
2023-04-10T04:25:00.902Z,15.55
2023-04-10T04:26:04.813Z,17.47
2023-04-10T04:27:09.166Z,18.63
2023-04-10T04:28:12.873Z,16.15
2023-04-10T04:29:16.652Z,16.70
2023-04-10T04:30:20.361Z,19.40
2023-04-10T04:31:24.201Z,15.87
2023-04-10T04:32:28.034Z,21.33
2023-04-10T04:33:40.620Z,20.52
2023-04-10T04:34:49.982Z,16.48
2023-04-10T04:35:53.747Z,21.15
2023-04-10T04:36:57.505Z,16.00
2023-04-10T04:38:01.286Z,18.95
2023-04-10T04:39:05.250Z,19.17
2023-04-10T04:40:10.020Z,16.00
2023-04-10T04:41:13.768Z,18.25
2023-04-10T04:42:17.456Z,18.27
2023-04-10T04:43:21.119Z,17.35
2023-04-10T04:44:24.772Z,18.25
2023-04-10T04:45:28.651Z,15.20
2023-04-10T04:46:32.327Z,15.38
2023-04-10T04:47:36.059Z,20.17
2023-04-10T04:48:39.876Z,15.77
2023-04-10T04:49:45.658Z,16.33
2023-04-10T04:50:49.301Z,18.50
2023-04-10T04:51:52.926Z,16.38
2023-04-10T04:52:56.662Z,16.87
2023-04-10T04:54:00.872Z,16.63
2023-04-10T04:55:04.798Z,18.55
2023-04-10T04:56:09.376Z,17.67
2023-04-10T04:57:13.071Z,17.67
2023-04-10T04:58:16.770Z,16.07
2023-04-10T04:59:20.738Z,17.33
2023-04-10T05:00:24.545Z,15.63
2023-04-10T05:01:28.300Z,14.65
2023-04-10T05:02:32.164Z,15.75
2023-04-10T05:03:36.216Z,16.40
2023-04-10T05:04:40.099Z,17.08
2023-04-10T05:05:45.591Z,17.05
2023-04-10T05:06:49.342Z,21.42
2023-04-10T05:07:53.054Z,18.00
2023-04-10T05:08:56.935Z,19.03
2023-04-10T05:10:00.632Z,18.45
2023-04-10T05:11:04.499Z,17.60
2023-04-10T05:12:08.229Z,15.90
2023-04-10T05:13:11.882Z,15.20
2023-04-10T05:14:15.690Z,16.27
2023-04-10T05:15:19.494Z,19.23
2023-04-10T05:16:23.346Z,16.33
2023-04-10T05:17:27.311Z,17.92
2023-04-10T05:18:31.115Z,16.27
2023-04-10T05:19:34.912Z,16.73
2023-04-10T05:20:39.144Z,19.58
2023-04-10T05:21:44.748Z,18.02
2023-04-10T05:22:48.420Z,17.45
2023-04-10T05:23:52.243Z,17.30
2023-04-10T05:24:55.965Z,19.50
2023-04-10T05:25:59.724Z,18.02
2023-04-10T05:27:03.615Z,16.98
2023-04-10T05:28:07.259Z,16.73
2023-04-10T05:29:10.976Z,18.27
2023-04-10T05:30:14.833Z,17.83
2023-04-10T05:31:18.602Z,18.60
2023-04-10T05:32:22.400Z,17.92
2023-04-10T05:33:26.088Z,15.98
2023-04-10T05:34:29.791Z,15.80
2023-04-10T05:35:33.502Z,19.17
2023-04-10T05:36:37.277Z,18.33
2023-04-10T05:37:42.639Z,18.23
2023-04-10T05:38:46.305Z,18.63
2023-04-10T05:39:49.947Z,18.13
2023-04-10T05:40:53.641Z,16.20
2023-04-10T05:41:57.386Z,17.48
2023-04-10T05:43:01.181Z,19.00
2023-04-10T05:44:04.858Z,17.95
2023-04-10T05:45:09.173Z,16.30
2023-04-10T05:46:12.914Z,18.13
2023-04-10T05:47:16.684Z,17.33
2023-04-10T05:48:20.394Z,19.27
2023-04-10T05:49:24.188Z,16.48
2023-04-10T05:50:30.372Z,18.80
2023-04-10T05:51:34.792Z,17.27
2023-04-10T05:52:38.540Z,19.60
2023-04-10T05:53:43.948Z,16.55
2023-04-10T05:54:47.613Z,18.35
2023-04-10T05:55:51.759Z,18.50
2023-04-10T05:56:55.453Z,17.07
2023-04-10T05:57:59.151Z,17.30
2023-04-10T05:59:02.853Z,15.80
2023-04-10T06:00:07.629Z,17.95
2023-04-10T06:01:11.387Z,17.52
2023-04-10T06:02:15.277Z,18.57
2023-04-10T06:03:19.053Z,20.23
2023-04-10T06:04:23.001Z,18.33
2023-04-10T06:05:26.922Z,18.27
2023-04-10T06:06:30.723Z,16.60
2023-04-10T06:07:34.423Z,20.17
2023-04-10T06:08:38.096Z,18.48
2023-04-10T06:09:43.421Z,15.65
2023-04-10T06:10:47.951Z,18.02
2023-04-10T06:11:51.709Z,16.98
2023-04-10T06:12:55.317Z,18.17
2023-04-10T06:13:59.016Z,18.42
2023-04-10T06:15:02.664Z,18.27
2023-04-10T06:16:07.155Z,18.98
2023-04-10T06:17:10.851Z,15.13
2023-04-10T06:18:14.513Z,19.30
2023-04-10T06:19:18.634Z,18.27
2023-04-10T06:20:22.593Z,16.25
2023-04-10T06:21:26.399Z,17.58
2023-04-10T06:22:30.138Z,17.48
2023-04-10T06:23:33.931Z,15.20
2023-04-10T06:24:37.641Z,19.10
2023-04-10T06:25:43.077Z,17.23
2023-04-10T06:26:46.756Z,16.13
2023-04-10T06:27:50.580Z,15.98
2023-04-10T06:28:54.558Z,16.80
2023-04-10T06:29:58.427Z,15.70
2023-04-10T06:31:02.118Z,16.50
2023-04-10T06:32:05.885Z,16.83
2023-04-10T06:33:09.678Z,19.13
2023-04-10T06:34:13.396Z,15.23
2023-04-10T06:35:17.025Z,15.77
2023-04-10T06:36:20.749Z,15.90
2023-04-10T06:37:29.499Z,14.45
2023-04-10T06:38:33.306Z,13.88
2023-04-10T06:39:37.206Z,16.20
2023-04-10T06:40:42.709Z,14.85
2023-04-10T06:41:46.397Z,15.90
2023-04-10T06:42:49.979Z,16.50
2023-04-10T06:43:53.595Z,17.88
2023-04-10T06:44:57.487Z,16.67
2023-04-10T06:46:01.329Z,16.42
2023-04-10T06:47:05.246Z,14.43
2023-04-10T06:48:09.168Z,15.00
2023-04-10T06:49:13.102Z,16.38
2023-04-10T06:50:16.715Z,16.53
2023-04-10T06:51:20.506Z,16.95
2023-04-10T06:52:24.213Z,16.35
2023-04-10T06:53:28.380Z,15.32
2023-04-10T06:54:32.187Z,16.70
2023-04-10T06:55:35.898Z,16.60
2023-04-10T06:56:41.312Z,16.40
2023-04-10T06:57:45.017Z,17.25
2023-04-10T06:58:48.724Z,15.75
2023-04-10T06:59:52.443Z,17.40
2023-04-10T07:00:56.206Z,17.33
2023-04-10T07:02:00.025Z,17.88
2023-04-10T07:03:03.798Z,17.00
2023-04-10T07:04:07.764Z,17.30
2023-04-10T07:05:11.670Z,15.55
2023-04-10T07:06:15.388Z,15.73
2023-04-10T07:07:19.079Z,18.17
2023-04-10T07:08:22.673Z,16.02
2023-04-10T07:09:27.206Z,15.75
2023-04-10T07:10:30.938Z,14.98
2023-04-10T07:11:34.699Z,17.53
2023-04-10T07:12:40.118Z,18.23
2023-04-10T07:13:43.800Z,19.27
2023-04-10T07:14:47.508Z,17.23
2023-04-10T07:15:51.221Z,19.95
2023-04-10T07:16:54.981Z,17.80
2023-04-10T07:17:58.744Z,15.85
2023-04-10T07:19:02.600Z,18.20
2023-04-10T07:20:07.601Z,14.68
2023-04-10T07:21:12.530Z,21.67
2023-04-10T07:22:16.204Z,18.17
2023-04-10T07:23:19.950Z,19.70
2023-04-10T07:24:23.661Z,17.17
2023-04-10T07:25:27.391Z,15.75
2023-04-10T07:26:31.086Z,14.88
2023-04-10T07:27:34.905Z,15.33
2023-04-10T07:28:40.213Z,16.02
2023-04-10T07:29:43.957Z,14.98
2023-04-10T07:30:47.650Z,16.33
2023-04-10T07:31:51.504Z,14.80
2023-04-10T07:32:55.627Z,15.53
2023-04-10T07:33:59.495Z,16.42
2023-04-10T07:35:03.198Z,17.02
2023-04-10T07:36:07.588Z,21.50
2023-04-10T07:37:11.435Z,16.17
2023-04-10T07:38:15.337Z,16.70
2023-04-10T07:39:19.006Z,16.58
2023-04-10T07:40:22.671Z,20.10
2023-04-10T07:41:26.347Z,17.95
2023-04-10T07:42:30.034Z,18.02
2023-04-10T07:43:33.817Z,15.53
2023-04-10T07:44:39.242Z,14.70
2023-04-10T07:45:42.980Z,14.48
2023-04-10T07:46:46.726Z,15.15
2023-04-10T07:47:50.437Z,15.23
2023-04-10T07:48:54.317Z,15.57
2023-04-10T07:49:58.228Z,16.40
2023-04-10T07:51:01.980Z,17.65
2023-04-10T07:52:05.912Z,15.13
2023-04-10T07:53:09.669Z,17.30
2023-04-10T07:54:13.530Z,15.63
2023-04-10T07:55:17.300Z,18.70
2023-04-10T07:56:21.652Z,16.67
2023-04-10T07:57:25.360Z,17.65
2023-04-10T07:58:29.123Z,15.27
2023-04-10T07:59:32.957Z,14.13
2023-04-10T20:01:26.691Z,21.58
2023-04-10T20:02:30.574Z,21.83
2023-04-10T20:03:34.594Z,21.85
2023-04-10T20:04:38.603Z,22.35
2023-04-10T20:05:42.552Z,22.33
2023-04-10T20:06:46.298Z,21.08
2023-04-10T20:07:50.009Z,20.55
2023-04-10T20:08:54.173Z,19.17
2023-04-10T20:09:58.116Z,21.20
2023-04-10T20:11:01.889Z,20.47
2023-04-10T20:12:06.057Z,20.77
2023-04-10T20:13:09.706Z,19.92
2023-04-10T20:14:13.388Z,20.48
2023-04-10T20:15:17.120Z,21.50
2023-04-10T20:16:20.886Z,20.57
2023-04-10T20:17:26.553Z,22.77
2023-04-10T20:18:31.758Z,21.85
2023-04-10T20:19:35.417Z,21.65
2023-04-10T20:20:39.151Z,22.00
2023-04-10T20:21:42.825Z,20.40
2023-04-10T20:22:46.543Z,22.38
2023-04-10T20:23:50.293Z,21.27
2023-04-10T20:24:54.029Z,20.73
2023-04-10T20:25:57.765Z,21.30
2023-04-10T20:27:01.625Z,19.63
2023-04-10T20:28:05.515Z,23.50
2023-04-10T20:29:09.158Z,24.65
2023-04-10T20:30:13.100Z,21.73
2023-04-10T20:31:16.715Z,25.48
2023-04-10T20:32:20.478Z,21.03
2023-04-10T20:33:25.863Z,22.52
2023-04-10T20:34:29.473Z,22.00
2023-04-10T20:35:33.091Z,21.27
2023-04-10T20:36:36.775Z,19.67
2023-04-10T20:37:40.442Z,20.83
2023-04-10T20:38:44.168Z,21.08
2023-04-10T20:39:47.876Z,21.75
2023-04-10T20:40:51.504Z,23.63
2023-04-10T20:41:55.257Z,19.77
2023-04-10T20:42:58.996Z,21.03
2023-04-10T20:44:02.752Z,20.00
2023-04-10T20:45:07.262Z,20.63
2023-04-10T20:46:11.008Z,20.50
2023-04-10T20:47:14.883Z,22.45
2023-04-10T20:48:18.642Z,26.27
2023-04-10T20:49:24.073Z,22.25
2023-04-10T20:50:27.786Z,21.67
2023-04-10T20:51:31.563Z,20.65
2023-04-10T20:52:35.288Z,21.15
2023-04-10T20:53:39.118Z,22.53
2023-04-10T20:54:42.804Z,24.75
2023-04-10T20:55:46.481Z,23.27
2023-04-10T20:56:50.235Z,23.58
2023-04-10T20:57:53.973Z,25.17
2023-04-10T20:58:57.665Z,21.73
2023-04-10T21:00:01.360Z,22.13
2023-04-10T21:01:05.191Z,24.15
2023-04-10T21:02:08.967Z,20.90
2023-04-10T21:03:13.066Z,19.45
2023-04-10T21:04:17.005Z,25.37
2023-04-10T21:05:22.389Z,23.55
2023-04-10T21:06:26.119Z,24.00
2023-04-10T21:07:29.923Z,22.52
2023-04-10T21:08:33.645Z,21.95
2023-04-10T21:09:37.560Z,21.73
2023-04-10T21:10:41.408Z,23.45
2023-04-10T21:11:45.119Z,22.40
2023-04-10T21:12:48.745Z,24.27
2023-04-10T21:13:52.417Z,22.85
2023-04-10T21:14:56.108Z,23.67
2023-04-10T21:15:59.821Z,24.85
2023-04-10T21:17:03.775Z,21.83
2023-04-10T21:18:07.918Z,21.65
2023-04-10T21:19:11.832Z,23.73
2023-04-10T21:20:15.532Z,23.43
2023-04-10T21:21:20.897Z,22.95
2023-04-10T21:22:24.608Z,22.23
2023-04-10T21:23:28.354Z,21.08
2023-04-10T21:24:32.030Z,23.92
2023-04-10T21:25:36.639Z,24.67
2023-04-10T21:26:40.326Z,24.17
2023-04-10T21:27:44.009Z,23.23
2023-04-10T21:28:47.667Z,23.60
2023-04-10T21:29:51.504Z,23.88
2023-04-10T21:30:55.293Z,24.30
2023-04-10T21:31:58.984Z,25.05
2023-04-10T21:33:02.758Z,22.92
2023-04-10T21:34:06.622Z,25.23
2023-04-10T21:35:10.863Z,23.15
2023-04-10T21:36:14.569Z,21.97
2023-04-10T21:37:19.942Z,22.23
2023-04-10T21:38:23.897Z,26.17
2023-04-10T21:39:27.580Z,21.98
2023-04-10T21:40:31.301Z,25.98
2023-04-10T21:41:35.026Z,21.77
2023-04-10T21:42:38.895Z,21.85
2023-04-10T21:43:42.515Z,23.52
2023-04-10T21:44:46.187Z,23.60
2023-04-10T21:45:50.045Z,23.38
2023-04-10T21:46:53.787Z,25.10
2023-04-10T21:47:57.495Z,26.23
2023-04-10T21:49:01.304Z,22.75
2023-04-10T21:50:13.839Z,23.33
2023-04-10T21:51:17.480Z,24.48
2023-04-10T21:52:22.832Z,21.40
2023-04-10T21:53:26.445Z,21.17
2023-04-10T21:54:30.429Z,24.42
2023-04-10T21:55:34.312Z,23.23
2023-04-10T21:56:37.971Z,22.60
2023-04-10T21:57:41.650Z,23.40
2023-04-10T21:58:45.386Z,22.20
2023-04-10T21:59:49.198Z,23.30
2023-04-10T22:00:52.953Z,22.55
2023-04-10T22:01:56.785Z,22.90
2023-04-10T22:03:00.796Z,21.95
2023-04-10T22:04:04.783Z,22.03
2023-04-10T22:05:09.152Z,21.52
2023-04-10T22:06:12.932Z,22.63
2023-04-10T22:07:16.680Z,24.13
2023-04-10T22:08:22.059Z,24.30
2023-04-10T22:09:25.725Z,23.97
2023-04-10T22:10:29.415Z,23.60
2023-04-10T22:11:33.080Z,23.33
2023-04-10T22:12:36.768Z,27.23
2023-04-10T22:13:40.436Z,23.55
2023-04-10T22:14:44.234Z,24.43
2023-04-10T22:15:48.332Z,22.77
2023-04-10T22:16:52.070Z,22.58
2023-04-10T22:17:55.790Z,20.20
2023-04-10T22:18:59.610Z,22.30
2023-04-10T22:20:03.504Z,22.37
2023-04-10T22:21:07.740Z,22.98
2023-04-10T22:22:11.382Z,23.17
2023-04-10T22:23:15.037Z,22.25
2023-04-10T22:24:20.417Z,22.08
2023-04-10T22:25:24.084Z,22.57
2023-04-10T22:26:27.760Z,23.77
2023-04-10T22:27:31.414Z,21.88
2023-04-10T22:28:35.067Z,21.42
2023-04-10T22:29:39.067Z,23.23
2023-04-10T22:30:43.474Z,24.07
2023-04-10T22:31:47.191Z,23.40
2023-04-10T22:32:51.064Z,24.20
2023-04-10T22:33:54.818Z,26.13
2023-04-10T22:34:59.972Z,22.40
2023-04-10T22:36:03.897Z,24.60
2023-04-10T22:37:07.771Z,26.05
2023-04-10T22:38:11.528Z,23.90
2023-04-10T22:39:15.277Z,26.35
2023-04-10T22:40:20.687Z,24.00
2023-04-10T22:41:24.353Z,23.67
2023-04-10T22:42:30.517Z,24.58
2023-04-10T22:43:35.808Z,26.30
2023-04-10T22:44:39.498Z,25.27
2023-04-10T22:45:43.465Z,22.13
2023-04-10T22:46:47.306Z,24.50
2023-04-10T22:47:51.119Z,25.17
2023-04-10T22:48:55.774Z,25.60
2023-04-10T22:49:59.642Z,23.27
2023-04-10T22:51:03.442Z,24.05
2023-04-10T22:52:08.251Z,25.73
2023-04-10T22:53:12.178Z,23.70
2023-04-10T22:54:16.052Z,28.25
2023-04-10T22:55:21.501Z,24.55
2023-04-10T22:56:25.172Z,26.40
2023-04-10T22:57:28.901Z,24.60
2023-04-10T22:58:32.636Z,21.48
2023-04-10T22:59:37.593Z,23.15
2023-04-10T23:00:41.323Z,26.75
2023-04-10T23:01:45.111Z,21.98
2023-04-10T23:02:49.157Z,23.07
2023-04-10T23:03:53.258Z,26.35
2023-04-10T23:04:56.982Z,22.42
2023-04-10T23:06:00.751Z,23.20
2023-04-10T23:07:04.434Z,25.27
2023-04-10T23:08:08.139Z,26.03
2023-04-10T23:09:11.850Z,24.48
2023-04-10T23:10:15.613Z,28.50
2023-04-10T23:11:21.112Z,23.65
2023-04-10T23:12:24.817Z,23.85
2023-04-10T23:13:28.510Z,23.40
2023-04-10T23:14:35.100Z,25.83
2023-04-10T23:15:39.224Z,25.55
2023-04-10T23:16:45.790Z,24.52
2023-04-10T23:17:49.526Z,28.02
2023-04-10T23:18:53.442Z,25.50
2023-04-10T23:19:57.364Z,28.60
2023-04-10T23:21:05.979Z,27.38
2023-04-10T23:22:09.680Z,26.75
2023-04-10T23:23:13.340Z,25.85
2023-04-10T23:24:17.132Z,23.67
2023-04-10T23:25:20.846Z,26.38
2023-04-10T23:26:26.198Z,25.90
2023-04-10T23:27:30.203Z,22.45
2023-04-10T23:28:34.032Z,24.30
2023-04-10T23:29:37.869Z,22.17
2023-04-10T23:30:41.527Z,27.15
2023-04-10T23:31:45.459Z,23.67
2023-04-10T23:32:49.177Z,24.52
2023-04-10T23:33:52.941Z,22.88
2023-04-10T23:34:56.654Z,25.43
2023-04-10T23:36:00.393Z,25.13
2023-04-10T23:37:04.203Z,22.92
2023-04-10T23:38:08.012Z,26.70
2023-04-10T23:39:11.622Z,24.35
2023-04-10T23:40:15.537Z,27.47
2023-04-10T23:41:19.218Z,24.98
2023-04-10T23:42:24.663Z,26.27
2023-04-10T23:43:28.353Z,24.85
2023-04-10T23:44:32.102Z,26.80
2023-04-10T23:45:35.788Z,26.60
2023-04-10T23:46:39.505Z,25.60
2023-04-10T23:47:43.197Z,24.20
2023-04-10T23:48:46.924Z,24.00
2023-04-10T23:49:50.561Z,27.25
2023-04-10T23:51:03.988Z,27.07
2023-04-10T23:52:07.723Z,27.88
2023-04-10T23:53:12.733Z,28.17
2023-04-10T23:54:17.654Z,24.55
2023-04-10T23:55:21.588Z,24.70
2023-04-10T23:56:25.314Z,26.40
2023-04-10T23:57:30.667Z,23.85
2023-04-10T23:58:34.293Z,28.35
2023-04-10T23:59:37.981Z,26.35
